| time (UTC) | temp F | wind direction | speed MPH | gust MPH | rain 1hr in | rain 24hr in | rain mn in | humidity % | barometer mb |
| 20260509201540 | 53 | 157 | 2.0 | 6.0 | 0.02 | 0.45 | 0.45 | 94 | 1009.5 |
| 20260509200041 | 53 | 182 | 2.0 | 5.0 | 0.03 | 0.45 | 0.45 | 94 | 1009.6 |
| 20260509194539 | 53 | 164 | 1.0 | 4.0 | 0.03 | 0.44 | 0.44 | 95 | 1009.8 |
| 20260509193034 | 52 | 129 | 0.0 | 3.0 | 0.04 | 0.44 | 0.44 | 94 | 1009.9 |
| 20260509191534 | 52 | 129 | 0.0 | 3.0 | 0.06 | 0.43 | 0.43 | 94 | 1010.0 |
| 20260509190032 | 52 | 159 | 0.0 | 3.0 | 0.06 | 0.42 | 0.42 | 94 | 1010.0 |
| 20260509184534 | 52 | 181 | 0.0 | 2.0 | 0.06 | 0.41 | 0.41 | 94 | 1010.1 |
| 20260509183031 | 52 | 179 | 0.0 | 2.0 | 0.05 | 0.40 | 0.40 | 94 | 1010.0 |
| 20260509181532 | 52 | 110 | 1.0 | 3.0 | 0.02 | 0.37 | 0.37 | 94 | 1010.0 |
| 20260509180029 | 52 | 198 | 0.0 | 3.0 | 0.01 | 0.36 | 0.36 | 94 | 1010.0 |
| 20260509174529 | 52 | 149 | 1.0 | 3.0 | 0.00 | 0.35 | 0.35 | 94 | 1009.9 |
| 20260509173127 | 52 | 128 | 1.0 | 3.0 | 0.00 | 0.35 | 0.35 | 95 | 1010.0 |
| 20260509171525 | 52 | 53 | 1.0 | 4.0 | 0.00 | 0.35 | 0.35 | 95 | 1010.0 |
| 20260509170023 | 51 | 107 | 0.0 | 4.0 | 0.00 | 0.35 | 0.35 | 95 | 1009.9 |
| 20260509164522 | 51 | 145 | 1.0 | 4.0 | 0.01 | 0.35 | 0.35 | 95 | 1010.0 |
| 20260509163020 | 51 | 170 | 2.0 | 6.0 | 0.01 | 0.35 | 0.35 | 95 | 1010.0 |
| 20260509161520 | 51 | 193 | 1.0 | 3.0 | 0.01 | 0.35 | 0.35 | 96 | 1010.3 |
| 20260509160019 | 51 | 193 | 1.0 | 4.0 | 0.01 | 0.35 | 0.35 | 96 | 1010.4 |
| 20260509154521 | 51 | 55 | 0.0 | 3.0 | 0.01 | 0.34 | 0.34 | 96 | 1010.4 |
| 20260509153014 | 51 | 53 | 0.0 | 2.0 | 0.02 | 0.34 | 0.34 | 96 | 1010.6 |
| 20260509151510 | 51 | 54 | 1.0 | 3.0 | 0.03 | 0.34 | 0.34 | 96 | 1010.7 |
| 20260509150007 | 50 | 55 | 1.0 | 4.0 | 0.04 | 0.34 | 0.34 | 96 | 1010.9 |
| 20260509144505 | 50 | 40 | 0.0 | 2.0 | 0.04 | 0.33 | 0.33 | 96 | 1011.1 |
| 20260509143006 | 50 | 39 | 0.0 | 2.0 | 0.03 | 0.32 | 0.32 | 96 | 1011.1 |
| 20260509141507 | 50 | 39 | 0.0 | 2.0 | 0.03 | 0.31 | 0.31 | 96 | 1011.1 |
| 20260509140000 | 50 | 38 | 0.0 | 1.0 | 0.03 | 0.30 | 0.30 | 96 | 1011.2 |
| 20260509134559 | 49 | 41 | 0.0 | 1.0 | 0.02 | 0.28 | 0.28 | 96 | 1011.1 |
| 20260509133101 | 49 | 360 | 0.0 | 1.0 | 0.04 | 0.28 | 0.28 | 96 | 1011.2 |
| 20260509131554 | 48 | 36 | 0.0 | 2.0 | 0.04 | 0.28 | 0.28 | 96 | 1011.3 |
| 20260509130100 | 48 | 36 | 0.0 | 2.0 | 0.05 | 0.27 | 0.27 | 96 | 1011.5 |
| 20260509124550 | 48 | 167 | 0.0 | 2.0 | 0.07 | 0.27 | 0.27 | 96 | 1011.5 |
| 20260509123051 | 48 | 167 | 0.0 | 1.0 | 0.08 | 0.25 | 0.25 | 96 | 1011.6 |
| 20260509121546 | 47 | 167 | 0.0 | 1.0 | 0.09 | 0.24 | 0.24 | 96 | 1011.7 |
| 20260509120051 | 47 | 167 | 0.0 | 2.0 | 0.08 | 0.22 | 0.22 | 95 | 1011.8 |
| 20260509114545 | 47 | 167 | 0.0 | 1.0 | 0.07 | 0.20 | 0.20 | 95 | 1012.0 |
| 20260509113043 | 47 | 167 | 0.0 | 2.0 | 0.07 | 0.17 | 0.17 | 95 | 1011.9 |
| 20260509111542 | 47 | 167 | 0.0 | 2.0 | 0.08 | 0.15 | 0.15 | 95 | 1011.7 |
| 20260509110038 | 47 | 167 | 0.0 | 1.0 | 0.09 | 0.14 | 0.14 | 95 | 1011.7 |
| 20260509104536 | 47 | 167 | 0.0 | 2.0 | 0.08 | 0.13 | 0.13 | 95 | 1011.6 |
| 20260509103035 | 47 | 167 | 0.0 | 1.0 | 0.05 | 0.10 | 0.10 | 95 | 1011.8 |
| 20260509101538 | 46 | 167 | 0.0 | 1.0 | 0.02 | 0.06 | 0.06 | 95 | 1011.8 |
| 20260509100035 | 46 | 161 | 0.0 | 1.0 | 0.01 | 0.05 | 0.05 | 95 | 1011.7 |
| 20260509094534 | 46 | 58 | 0.0 | 1.0 | 0.01 | 0.05 | 0.05 | 95 | 1011.7 |
| 20260509093033 | 46 | 57 | 0.0 | 1.0 | 0.01 | 0.05 | 0.05 | 95 | 1011.7 |
| 20260509091532 | 46 | 57 | 0.0 | 2.0 | 0.00 | 0.04 | 0.04 | 95 | 1011.7 |
| 20260509090032 | 46 | 57 | 0.0 | 3.0 | 0.00 | 0.04 | 0.04 | 95 | 1011.8 |
| 20260509084536 | 46 | 58 | 0.0 | 3.0 | 0.01 | 0.04 | 0.04 | 95 | 1011.9 |
| 20260509083036 | 46 | 184 | 0.0 | 1.0 | 0.01 | 0.04 | 0.04 | 95 | 1012.0 |
| 20260509081530 | 46 | 184 | 0.0 | 2.0 | 0.01 | 0.04 | 0.04 | 94 | 1012.1 |
| 20260509080035 | 46 | 184 | 0.0 | 3.0 | 0.01 | 0.04 | 0.04 | 94 | 1012.4 |
| 20260509074526 | 46 | 178 | 0.0 | 2.0 | 0.00 | 0.03 | 0.03 | 94 | 1012.5 |
| 20260509073024 | 45 | 178 | 0.0 | 1.0 | 0.00 | 0.03 | 0.03 | 94 | 1012.4 |
| 20260509071523 | 45 | 178 | 0.0 | 1.0 | 0.01 | 0.03 | 0.03 | 93 | 1012.3 |
| 20260509070022 | 45 | 178 | 0.0 | 1.0 | 0.02 | 0.03 | 0.03 | 93 | 1012.4 |
| 20260509064523 | 45 | 178 | 0.0 | 2.0 | 0.03 | 0.03 | 0.03 | 93 | 1012.3 |
| 20260509063017 | 45 | 178 | 0.0 | 0.0 | 0.03 | 0.03 | 0.03 | 92 | 1012.5 |
| 20260509061515 | 45 | 178 | 0.0 | 0.0 | 0.02 | 0.02 | 0.02 | 91 | 1012.8 |
| 20260509060013 | 44 | 178 | 0.0 | 0.0 | 0.01 | 0.01 | 0.01 | 90 | 1013.0 |
| 20260509054511 | 44 | 178 | 0.0 | 0.0 | 0.00 | 0.00 | 0.00 | 89 | 1013.1 |
| 20260509053009 | 43 | 178 | 0.0 | 0.0 | 0.00 | 0.00 | 0.00 | 88 | 1013.0 |
| 20260509051508 | 43 | 178 | 0.0 | 0.0 | 0.00 | 0.00 | 0.00 | 87 | 1013.1 |
| 20260509050008 | 43 | 178 | 0.0 | 0.0 | 0.00 | 0.00 | 0.00 | 87 | 1013.0 |
| 20260509044507 | 43 | 178 | 0.0 | 0.0 | 0.00 | 0.00 | 0.00 | 87 | 1013.2 |
| 20260509043005 | 43 | 178 | 0.0 | 0.0 | 0.00 | 0.00 | 0.00 | 87 | 1013.2 |
| 20260509041507 | 43 | 178 | 0.0 | 0.0 | 0.00 | 0.00 | 0.00 | 86 | 1013.5 |
| 20260509040001 | 42 | 178 | 0.0 | 0.0 | 0.00 | 0.00 | 0.00 | 86 | 1013.5 |
| 20260509034501 | 42 | 178 | 0.0 | 0.0 | 0.00 | 0.00 | 0.00 | 86 | 1013.4 |
| 20260509033101 | 42 | 178 | 0.0 | 0.0 | 0.00 | 0.00 | 0.00 | 85 | 1013.4 |
| 20260509031600 | 42 | 178 | 0.0 | 0.0 | 0.00 | 0.00 | 0.00 | 85 | 1013.3 |
| 20260509030100 | 42 | 178 | 0.0 | 1.0 | 0.00 | 0.00 | 0.00 | 85 | 1013.5 |
| 20260509024601 | 42 | 178 | 0.0 | 0.0 | 0.00 | 0.00 | 0.00 | 84 | 1013.6 |
| 20260509024501 | 42 | 178 | 0.0 | 0.0 | 0.00 | 0.00 | 0.00 | 84 | 1013.5 |
| 20260509023104 | 42 | 178 | 0.0 | 2.0 | 0.00 | 0.00 | 0.00 | 83 | 1013.5 |
| 20260509021558 | 42 | 178 | 0.0 | 2.0 | 0.00 | 0.00 | 0.00 | 82 | 1013.4 |
| 20260509020059 | 43 | 178 | 0.0 | 1.0 | 0.00 | 0.00 | 0.00 | 81 | 1013.5 |
| 20260509014557 | 43 | 178 | 1.0 | 2.0 | 0.00 | 0.00 | 0.00 | 80 | 1013.5 |
| 20260509013101 | 44 | 178 | 0.0 | 3.0 | 0.00 | 0.00 | 0.00 | 78 | 1013.4 |
| 20260509011556 | 44 | 178 | 0.0 | 2.0 | 0.00 | 0.00 | 0.00 | 77 | 1013.2 |
| 20260509010055 | 45 | 178 | 0.0 | 2.0 | 0.00 | 0.00 | 0.00 | 78 | 1013.0 |
| 20260509004555 | 46 | 178 | 1.0 | 2.0 | 0.00 | 0.00 | 0.00 | 75 | 1012.7 |
| 20260509003104 | 47 | 178 | 1.0 | 2.0 | 0.00 | 0.00 | 0.00 | 74 | 1012.5 |
| 20260509001554 | 48 | 178 | 0.0 | 2.0 | 0.00 | 0.00 | 0.00 | 72 | 1012.3 |
| 20260509000104 | 49 | 178 | 0.0 | 2.0 | 0.00 | 0.00 | 0.00 | 69 | 1012.1 |
| 20260508234654 | 50 | 178 | 0.0 | 2.0 | 0.00 | 0.00 | 0.00 | 66 | 1011.9 |
| 20260508233053 | 53 | 178 | 0.0 | 1.0 | 0.00 | 0.00 | 0.00 | 63 | 1011.8 |
| 20260508231551 | 55 | 178 | 0.0 | 2.0 | 0.00 | 0.00 | 0.00 | 53 | 1011.7 |
| 20260508230104 | 55 | 178 | 0.0 | 3.0 | 0.00 | 0.00 | 0.00 | 49 | 1011.7 |
| 20260508224550 | 56 | 113 | 0.0 | 3.0 | 0.00 | 0.00 | 0.00 | 50 | 1011.8 |
| 20260508223050 | 57 | 202 | 0.0 | 3.0 | 0.00 | 0.00 | 0.00 | 49 | 1011.7 |
| 20260508221550 | 61 | 147 | 0.0 | 3.0 | 0.00 | 0.00 | 0.00 | 45 | 1011.6 |
| 20260508220049 | 61 | 63 | 0.0 | 3.0 | 0.00 | 0.00 | 0.00 | 45 | 1011.6 |
| 20260508214548 | 58 | 360 | 0.0 | 5.0 | 0.00 | 0.00 | 0.00 | 48 | 1011.8 |
| 20260508213047 | 58 | 344 | 1.0 | 11.0 | 0.00 | 0.00 | 0.00 | 45 | 1012.0 |
| 20260508211544 | 60 | 287 | 0.0 | 5.0 | 0.00 | 0.00 | 0.00 | 43 | 1012.0 |
| 20260508210043 | 57 | 247 | 1.0 | 6.0 | 0.00 | 0.00 | 0.00 | 46 | 1011.9 |
| 20260508204542 | 57 | 282 | 2.0 | 8.0 | 0.00 | 0.00 | 0.00 | 45 | 1012.2 |
| 20260508203038 | 56 | 15 | 2.0 | 5.0 | 0.00 | 0.00 | 0.00 | 46 | 1012.3 |